Time;durP1;ratioP1;P1;durP2;ratioP2;P2;SDS_P1;SDS_P2;PMS_P1;PMS_P2;Temp;Humidity;BMP_temperature;BMP_pressure;BME280_temperature;BME280_humidity;BME280_pressure;Samples;Min_cycle;Max_cycle;Signal;HPM_P1;HPM_P2
2023/05/05 00:00:55;;;;;;;8.75;4.65;;;13.20;70.30;;;;;;5054973;28;20029;-67
2023/05/05 00:03:22;;;;;;;9.38;4.20;;;13.20;70.50;;;;;;5055200;28;20025;-67
2023/05/05 00:05:48;;;;;;;8.18;3.92;;;13.20;70.60;;;;;;5054556;28;20029;-67
2023/05/05 00:08:15;;;;;;;6.00;4.00;;;13.20;70.20;;;;;;5054898;28;20478;-67
2023/05/05 00:10:44;;;;;;;5.10;3.70;;;13.30;70.20;;;;;;5054422;28;20024;-67
2023/05/05 00:13:10;;;;;;;8.27;4.25;;;13.20;69.90;;;;;;5053827;28;20033;-67
2023/05/05 00:15:35;;;;;;;5.70;3.40;;;13.20;69.60;;;;;;5054685;28;20025;-67
2023/05/05 00:18:01;;;;;;;6.50;3.88;;;13.20;70.20;;;;;;5055083;28;20036;-67
2023/05/05 00:20:27;;;;;;;7.13;3.58;;;13.20;70.10;;;;;;5054683;28;20025;-67
2023/05/05 00:22:52;;;;;;;11.15;3.83;;;13.10;70.30;;;;;;5054779;28;20104;-67
2023/05/05 00:25:18;;;;;;;7.68;3.90;;;13.10;70.30;;;;;;5054856;28;20064;-67
2023/05/05 00:27:44;;;;;;;6.50;3.88;;;13.10;70.50;;;;;;5054231;28;20070;-67
2023/05/05 00:30:09;;;;;;;6.85;3.78;;;13.00;71.40;;;;;;5054502;28;20114;-67
2023/05/05 00:32:35;;;;;;;6.93;3.88;;;12.90;71.20;;;;;;5053053;28;20110;-67
2023/05/05 00:35:01;;;;;;;8.63;3.50;;;12.90;71.00;;;;;;5054422;28;20031;-67
2023/05/05 00:37:27;;;;;;;6.95;3.60;;;12.90;70.80;;;;;;5053003;28;20083;-70
2023/05/05 00:39:52;;;;;;;6.22;3.45;;;12.80;70.90;;;;;;5054632;28;20071;-67
2023/05/05 00:42:18;;;;;;;6.05;3.42;;;12.80;71.20;;;;;;5054702;28;20056;-67
2023/05/05 00:44:44;;;;;;;7.13;3.70;;;12.80;71.40;;;;;;5054162;28;20484;-67
2023/05/05 00:47:11;;;;;;;6.47;3.97;;;12.80;71.50;;;;;;5054919;28;20025;-67
2023/05/05 00:49:37;;;;;;;6.00;3.83;;;12.70;71.50;;;;;;5054013;28;20381;-66
2023/05/05 00:52:05;;;;;;;6.57;3.92;;;12.70;71.80;;;;;;5054372;28;20025;-66
2023/05/05 00:54:32;;;;;;;7.28;3.70;;;12.60;72.10;;;;;;5053965;28;20021;-67
2023/05/05 00:56:58;;;;;;;9.60;4.28;;;12.60;72.30;;;;;;5053323;28;20028;-66
2023/05/05 00:59:24;;;;;;;5.47;3.80;;;12.50;72.00;;;;;;5054224;28;20078;-66
2023/05/05 01:01:50;;;;;;;8.50;4.00;;;12.50;72.00;;;;;;5053795;28;20021;-67
2023/05/05 01:04:16;;;;;;;7.47;4.10;;;12.50;72.00;;;;;;5053886;28;20075;-67
2023/05/05 01:07:21;;;;;;;10.10;4.07;;;12.50;72.30;;;;;;5053692;28;20063;-67
2023/05/05 01:10:02;;;;;;;9.90;3.85;;;12.50;72.50;;;;;;5047460;28;20036;-67
2023/05/05 01:13:02;;;;;;;7.32;3.85;;;12.40;72.90;;;;;;5053872;28;20411;-66
2023/05/05 01:15:38;;;;;;;5.35;3.55;;;12.40;73.00;;;;;;5037315;28;20145;-67
2023/05/05 01:18:35;;;;;;;7.82;3.90;;;12.40;73.40;;;;;;5053938;28;20029;-67
2023/05/05 01:21:13;;;;;;;6.35;3.33;;;12.40;73.30;;;;;;5053991;28;20028;-66
2023/05/05 01:24:03;;;;;;;5.43;3.92;;;12.40;73.50;;;;;;5053169;28;20117;-67
2023/05/05 01:26:56;;;;;;;5.75;3.67;;;12.30;73.80;;;;;;5053682;28;20535;-66
2023/05/05 01:29:38;;;;;;;5.90;3.70;;;12.30;73.60;;;;;;5053786;28;20112;-67
2023/05/05 01:32:13;;;;;;;6.53;4.20;;;12.30;74.10;;;;;;5053692;28;20083;-66
2023/05/05 01:34:49;;;;;;;13.05;3.92;;;12.30;74.40;;;;;;5053218;28;20124;-66
2023/05/05 01:37:21;;;;;;;9.88;4.05;;;12.20;74.50;;;;;;5053396;28;20025;-67
2023/05/05 01:39:54;;;;;;;7.25;3.75;;;12.20;75.00;;;;;;5052334;28;20379;-67
2023/05/05 01:42:22;;;;;;;8.70;4.13;;;12.10;75.40;;;;;;5052190;28;20104;-67
2023/05/05 01:44:50;;;;;;;6.82;3.75;;;12.10;75.50;;;;;;5052412;28;20486;-67
2023/05/05 01:47:20;;;;;;;7.80;3.92;;;12.10;75.30;;;;;;5053092;28;20025;-67
2023/05/05 01:49:47;;;;;;;5.85;4.00;;;12.10;75.40;;;;;;5052820;28;20397;-67
2023/05/05 01:52:14;;;;;;;5.25;3.78;;;12.10;76.50;;;;;;5053464;28;20082;-67
2023/05/05 01:54:42;;;;;;;6.30;3.55;;;12.10;76.30;;;;;;5052898;28;20025;-67
2023/05/05 01:57:10;;;;;;;5.88;3.40;;;12.00;76.50;;;;;;5053147;28;20107;-67
2023/05/05 01:59:38;;;;;;;7.57;3.72;;;12.00;76.80;;;;;;5052383;28;20056;-66
2023/05/05 02:02:05;;;;;;;5.95;3.92;;;12.00;76.40;;;;;;5052682;28;20067;-66
2023/05/05 02:04:33;;;;;;;8.63;3.90;;;11.90;76.30;;;;;;5052662;28;20458;-67
2023/05/05 02:07:00;;;;;;;10.05;3.85;;;11.90;76.80;;;;;;5051505;28;20438;-67
2023/05/05 02:09:28;;;;;;;6.38;4.13;;;11.90;77.30;;;;;;5053010;28;20033;-66
2023/05/05 02:11:56;;;;;;;5.50;4.15;;;11.90;77.10;;;;;;5052511;28;20119;-67
2023/05/05 02:14:23;;;;;;;6.43;3.80;;;11.90;77.60;;;;;;5052950;28;20450;-67
2023/05/05 02:16:50;;;;;;;7.50;3.60;;;11.80;77.30;;;;;;5052508;28;20069;-67
2023/05/05 02:19:17;;;;;;;10.00;4.25;;;11.80;78.10;;;;;;5052567;28;20478;-67
2023/05/05 02:21:43;;;;;;;4.75;3.88;;;11.80;78.30;;;;;;5052735;28;20055;-67
2023/05/05 02:24:09;;;;;;;6.78;5.05;;;11.80;78.40;;;;;;5053016;28;20524;-67
2023/05/05 02:26:38;;;;;;;8.50;4.03;;;11.70;78.70;;;;;;5052348;28;20063;-67
2023/05/05 02:29:14;;;;;;;8.23;3.92;;;11.80;78.90;;;;;;5052607;28;20037;-67
2023/05/05 02:31:46;;;;;;;6.18;4.03;;;11.70;79.80;;;;;;5052659;28;20053;-66
2023/05/05 02:34:15;;;;;;;5.78;3.85;;;11.70;80.60;;;;;;5052455;28;20043;-67
2023/05/05 02:36:43;;;;;;;11.50;4.57;;;11.70;80.90;;;;;;5052209;28;20112;-66
2023/05/05 02:39:20;;;;;;;9.55;4.88;;;11.80;81.80;;;;;;5052685;28;20025;-67
2023/05/05 02:41:48;;;;;;;10.07;5.25;;;11.70;81.90;;;;;;5052325;28;20347;-68
2023/05/05 02:44:15;;;;;;;14.25;5.30;;;11.80;83.30;;;;;;5052253;28;20389;-66
2023/05/05 02:46:41;;;;;;;9.38;5.63;;;11.80;84.70;;;;;;5050989;28;20491;-68
2023/05/05 02:49:07;;;;;;;9.07;4.93;;;11.80;86.00;;;;;;5052571;28;20033;-67
2023/05/05 02:51:33;;;;;;;10.52;5.20;;;11.80;85.50;;;;;;5052773;28;20036;-67
2023/05/05 02:53:59;;;;;;;10.38;5.40;;;11.80;86.00;;;;;;5051791;28;20393;-67
2023/05/05 02:56:52;;;;;;;13.70;5.18;;;11.80;86.60;;;;;;5052453;28;20028;-67
2023/05/05 02:59:28;;;;;;;10.30;5.45;;;11.80;87.00;;;;;;5047264;28;20051;-67
2023/05/05 03:01:59;;;;;;;9.52;5.07;;;11.80;86.70;;;;;;5052033;28;20047;-66
2023/05/05 03:04:30;;;;;;;12.15;5.53;;;11.80;87.00;;;;;;5052426;28;20039;-67
2023/05/05 03:06:58;;;;;;;13.90;5.65;;;11.80;87.40;;;;;;5051958;28;20063;-67
2023/05/05 03:09:35;;;;;;;9.68;5.13;;;11.80;87.60;;;;;;5052366;28;20033;-67
2023/05/05 03:12:04;;;;;;;13.27;5.80;;;11.80;87.90;;;;;;5052232;28;20044;-67
2023/05/05 03:14:35;;;;;;;8.90;5.65;;;11.80;88.40;;;;;;5052193;28;20029;-66
2023/05/05 03:17:02;;;;;;;11.82;5.53;;;11.70;89.20;;;;;;5051605;28;20032;-66
2023/05/05 03:19:29;;;;;;;9.50;5.10;;;11.70;90.00;;;;;;5051953;28;20036;-66
2023/05/05 03:21:55;;;;;;;12.02;5.97;;;11.60;90.20;;;;;;5055657;28;20079;-66
2023/05/05 03:24:21;;;;;;;11.18;5.95;;;11.50;90.70;;;;;;5055757;28;20112;-66
2023/05/05 03:26:48;;;;;;;11.75;5.80;;;11.50;90.90;;;;;;5055641;28;20108;-66
2023/05/05 03:29:14;;;;;;;14.32;5.63;;;11.50;90.90;;;;;;5056075;28;20033;-66
2023/05/05 03:31:41;;;;;;;11.55;5.60;;;11.50;91.20;;;;;;5055586;28;20067;-66
2023/05/05 03:34:07;;;;;;;11.80;6.25;;;11.50;91.40;;;;;;5055892;28;20033;-67
2023/05/05 03:36:34;;;;;;;12.40;5.65;;;11.50;91.40;;;;;;5055408;28;20017;-66
2023/05/05 03:39:00;;;;;;;15.43;6.35;;;11.50;91.50;;;;;;5055339;28;20048;-67
2023/05/05 03:41:26;;;;;;;12.40;5.88;;;11.40;91.80;;;;;;5055730;28;20033;-67
2023/05/05 03:43:53;;;;;;;13.18;5.47;;;11.40;92.00;;;;;;5055461;28;20037;-67
2023/05/05 03:46:18;;;;;;;14.65;6.47;;;11.30;92.10;;;;;;5055986;28;20056;-67
2023/05/05 03:48:44;;;;;;;16.92;6.55;;;11.30;92.00;;;;;;5055107;28;20032;-67
2023/05/05 03:51:12;;;;;;;11.05;5.70;;;11.30;91.90;;;;;;5055585;28;20021;-67
2023/05/05 03:53:37;;;;;;;12.93;6.03;;;11.30;92.30;;;;;;5055460;28;20391;-66
2023/05/05 03:56:03;;;;;;;13.40;5.97;;;11.30;92.60;;;;;;5054494;28;20110;-67
2023/05/05 03:58:29;;;;;;;8.95;5.47;;;11.30;92.70;;;;;;5055622;28;20036;-67
2023/05/05 04:00:55;;;;;;;12.20;6.35;;;11.30;92.40;;;;;;5053711;28;20434;-67
2023/05/05 04:03:21;;;;;;;10.13;5.82;;;11.30;92.50;;;;;;5055345;28;20029;-67
2023/05/05 04:05:47;;;;;;;13.50;6.78;;;11.30;92.40;;;;;;5054481;28;20378;-67
2023/05/05 04:08:13;;;;;;;13.95;6.28;;;11.30;92.90;;;;;;5054863;28;20032;-68
2023/05/05 04:10:38;;;;;;;11.90;5.95;;;11.30;93.30;;;;;;5055221;28;20434;-67
2023/05/05 04:13:04;;;;;;;13.50;6.63;;;11.30;93.60;;;;;;5054694;28;20064;-67
2023/05/05 04:15:29;;;;;;;11.13;6.47;;;11.30;93.70;;;;;;5054992;28;20402;-67
2023/05/05 04:17:55;;;;;;;11.18;5.72;;;11.30;93.40;;;;;;5054593;28;20052;-67
2023/05/05 04:20:21;;;;;;;15.80;6.63;;;11.40;93.70;;;;;;5054685;28;20025;-67
2023/05/05 04:22:47;;;;;;;11.50;6.35;;;11.40;93.40;;;;;;5054528;28;20040;-68
2023/05/05 04:25:12;;;;;;;9.25;6.00;;;11.50;93.10;;;;;;5054757;28;20033;-67
2023/05/05 04:27:38;;;;;;;14.27;6.35;;;11.50;93.10;;;;;;5055099;28;20029;-68
2023/05/05 04:30:04;;;;;;;11.10;6.32;;;11.60;92.80;;;;;;5054244;28;20100;-67
2023/05/05 04:32:30;;;;;;;11.50;6.30;;;11.70;92.60;;;;;;5054755;28;20087;-67
2023/05/05 04:34:56;;;;;;;9.25;6.30;;;11.80;92.40;;;;;;5054212;28;20079;-67
2023/05/05 04:37:21;;;;;;;12.15;6.53;;;11.90;92.30;;;;;;5054606;28;20025;-67
2023/05/05 04:39:47;;;;;;;11.63;6.53;;;12.10;91.70;;;;;;5054221;28;20052;-67
2023/05/05 04:42:12;;;;;;;8.65;5.40;;;12.20;91.00;;;;;;5054575;28;20450;-66
2023/05/05 04:44:38;;;;;;;9.55;5.78;;;12.30;90.20;;;;;;5054065;28;20385;-66
2023/05/05 04:47:04;;;;;;;15.95;6.53;;;12.40;89.60;;;;;;5054065;28;20638;-66
2023/05/05 04:49:30;;;;;;;10.57;5.97;;;12.60;89.10;;;;;;5054256;28;20035;-67
2023/05/05 04:51:56;;;;;;;8.40;5.85;;;12.80;87.70;;;;;;5054041;28;20100;-67
2023/05/05 04:54:22;;;;;;;11.93;7.05;;;12.90;85.90;;;;;;5054352;28;20104;-67
2023/05/05 04:56:48;;;;;;;11.43;6.03;;;13.10;84.50;;;;;;5053929;28;20128;-67
2023/05/05 04:59:15;;;;;;;11.75;5.80;;;13.20;83.80;;;;;;5054378;28;20055;-67
2023/05/05 05:01:40;;;;;;;13.00;6.18;;;13.30;83.00;;;;;;5054141;28;20021;-67
2023/05/05 05:04:07;;;;;;;10.38;6.30;;;13.50;81.70;;;;;;5053302;28;20091;-66
2023/05/05 05:06:33;;;;;;;9.63;6.10;;;13.50;80.80;;;;;;5054139;28;20118;-67
2023/05/05 05:08:59;;;;;;;13.35;7.00;;;13.70;80.20;;;;;;5053527;28;20029;-67
2023/05/05 05:11:24;;;;;;;9.20;6.75;;;13.90;80.10;;;;;;5053766;28;20550;-68
2023/05/05 05:13:50;;;;;;;10.85;7.13;;;14.00;78.90;;;;;;5053276;28;20032;-68
2023/05/05 05:16:15;;;;;;;11.90;6.90;;;14.10;77.80;;;;;;5054260;28;20056;-67
2023/05/05 05:18:41;;;;;;;12.85;7.13;;;14.20;77.40;;;;;;5053803;28;20481;-68
2023/05/05 05:21:07;;;;;;;9.95;6.88;;;14.40;77.20;;;;;;5053371;28;20378;-68
2023/05/05 05:23:33;;;;;;;13.35;7.13;;;14.60;76.50;;;;;;5053660;28;20029;-67
2023/05/05 05:25:58;;;;;;;12.25;7.15;;;14.70;75.50;;;;;;5053346;28;20108;-67
2023/05/05 05:28:24;;;;;;;11.55;6.65;;;14.90;74.70;;;;;;5053422;28;20033;-66
2023/05/05 05:30:51;;;;;;;18.65;7.10;;;15.20;73.80;;;;;;5053162;28;20029;-67
2023/05/05 05:33:17;;;;;;;12.57;6.43;;;15.70;72.90;;;;;;5053480;28;20025;-67
2023/05/05 05:35:43;;;;;;;8.13;6.55;;;16.20;70.20;;;;;;5053495;28;20028;-67
2023/05/05 05:38:09;;;;;;;10.10;6.78;;;16.80;68.80;;;;;;5053130;28;20033;-67
2023/05/05 05:40:35;;;;;;;9.38;6.78;;;17.20;65.80;;;;;;5052880;28;20021;-67
2023/05/05 05:43:01;;;;;;;12.45;6.30;;;17.60;63.50;;;;;;5052094;28;20506;-67
2023/05/05 05:45:27;;;;;;;13.05;6.63;;;17.90;62.50;;;;;;5052797;28;20052;-67
2023/05/05 05:47:53;;;;;;;10.82;6.82;;;18.10;61.70;;;;;;5053006;28;20347;-66
2023/05/05 05:50:18;;;;;;;12.05;6.43;;;18.40;60.30;;;;;;5053185;28;20414;-66
2023/05/05 05:52:44;;;;;;;11.13;6.30;;;18.80;59.10;;;;;;5051900;28;20029;-67
2023/05/05 05:55:10;;;;;;;13.57;6.38;;;19.10;58.10;;;;;;5052123;28;20044;-67
2023/05/05 05:57:35;;;;;;;11.82;6.15;;;19.70;57.50;;;;;;5053190;28;20021;-67
2023/05/05 06:00:01;;;;;;;8.95;6.38;;;20.10;55.30;;;;;;5051368;28;20478;-67
2023/05/05 06:02:27;;;;;;;11.48;6.88;;;20.40;53.90;;;;;;5052753;28;20021;-66
2023/05/05 06:04:52;;;;;;;10.13;5.75;;;20.50;53.30;;;;;;5052251;28;20071;-67
2023/05/05 06:07:18;;;;;;;8.05;6.07;;;20.80;52.60;;;;;;5052284;28;20456;-67
2023/05/05 06:09:44;;;;;;;7.70;5.32;;;20.90;51.00;;;;;;5052812;28;20125;-67
2023/05/05 06:12:09;;;;;;;8.10;5.70;;;21.30;50.70;;;;;;5052276;28;20025;-67
2023/05/05 06:14:35;;;;;;;15.10;6.07;;;21.40;50.80;;;;;;5052728;28;20131;-67
2023/05/05 06:17:01;;;;;;;8.32;5.68;;;21.10;51.10;;;;;;5052316;28;20091;-67
2023/05/05 06:19:26;;;;;;;10.70;5.25;;;21.50;50.40;;;;;;5052427;28;20062;-67
2023/05/05 06:21:52;;;;;;;7.90;5.28;;;22.00;49.40;;;;;;5051780;28;20035;-67
2023/05/05 06:24:18;;;;;;;10.05;5.45;;;22.20;49.50;;;;;;5051198;28;20078;-66
2023/05/05 06:26:43;;;;;;;9.98;5.35;;;22.40;48.70;;;;;;5052465;28;20029;-66
2023/05/05 06:29:09;;;;;;;9.98;5.20;;;23.00;46.70;;;;;;5052177;28;20037;-66
2023/05/05 06:31:35;;;;;;;9.00;5.70;;;23.50;46.40;;;;;;5052549;28;20052;-67
2023/05/05 06:34:00;;;;;;;9.80;5.43;;;23.90;44.90;;;;;;5052266;28;20453;-66
2023/05/05 06:36:26;;;;;;;6.93;5.70;;;24.10;44.70;;;;;;5052450;28;20159;-68
2023/05/05 06:38:52;;;;;;;7.15;5.63;;;24.50;43.90;;;;;;5052541;28;20064;-69
2023/05/05 06:41:18;;;;;;;9.05;5.93;;;24.50;42.40;;;;;;5052709;28;20036;-68
2023/05/05 06:43:44;;;;;;;9.23;5.90;;;24.90;43.50;;;;;;5052101;28;20029;-68
2023/05/05 06:46:10;;;;;;;9.60;6.07;;;25.20;42.30;;;;;;5051697;28;20049;-67
2023/05/05 06:48:35;;;;;;;13.52;6.63;;;25.40;41.40;;;;;;5052507;28;20036;-66
2023/05/05 06:51:01;;;;;;;11.52;7.22;;;25.20;41.80;;;;;;5051689;28;20029;-67
2023/05/05 06:53:27;;;;;;;10.00;6.80;;;25.60;41.80;;;;;;5052451;28;20425;-67
2023/05/05 06:55:53;;;;;;;10.95;7.13;;;25.90;41.60;;;;;;5056029;28;20116;-67
2023/05/05 06:58:20;;;;;;;11.35;7.00;;;25.90;41.00;;;;;;5055969;28;20549;-67
2023/05/05 07:00:46;;;;;;;13.65;7.40;;;26.10;40.10;;;;;;5056731;28;20030;-67
2023/05/05 07:03:11;;;;;;;12.45;7.15;;;26.00;40.40;;;;;;5055998;28;20477;-67
2023/05/05 07:05:37;;;;;;;11.68;6.75;;;26.40;40.40;;;;;;5056218;28;20044;-67
2023/05/05 07:08:03;;;;;;;8.45;6.45;;;27.00;39.60;;;;;;5054231;28;20025;-67
2023/05/05 07:10:30;;;;;;;10.75;6.93;;;27.70;39.60;;;;;;5056176;28;20025;-66
2023/05/05 07:12:56;;;;;;;10.80;7.25;;;28.20;38.20;;;;;;5055764;28;20079;-69
2023/05/05 07:15:21;;;;;;;10.95;6.78;;;28.00;37.50;;;;;;5054851;28;20477;-67
2023/05/05 07:17:47;;;;;;;12.15;7.25;;;28.50;36.90;;;;;;5056203;28;20052;-67
2023/05/05 07:20:13;;;;;;;10.68;7.75;;;28.60;36.50;;;;;;5055458;28;20381;-67
2023/05/05 07:22:38;;;;;;;12.38;6.72;;;28.80;36.40;;;;;;5056196;28;20374;-67
2023/05/05 07:25:05;;;;;;;12.05;6.95;;;29.60;36.90;;;;;;5055540;28;20040;-67
2023/05/05 07:27:31;;;;;;;9.95;6.45;;;30.00;35.40;;;;;;5056219;28;20108;-67
2023/05/05 07:29:57;;;;;;;9.07;6.90;;;30.30;34.60;;;;;;5055271;28;20029;-68
2023/05/05 07:32:23;;;;;;;9.30;7.25;;;29.80;33.90;;;;;;5055664;28;20032;-66
2023/05/05 07:34:48;;;;;;;10.82;7.15;;;29.70;34.00;;;;;;5055486;28;20025;-67
2023/05/05 07:37:14;;;;;;;8.23;6.47;;;29.90;35.20;;;;;;5054990;28;20029;-68
2023/05/05 07:39:40;;;;;;;10.02;7.07;;;30.40;34.80;;;;;;5055576;28;20044;-68
2023/05/05 07:42:06;;;;;;;12.40;7.18;;;30.80;33.90;;;;;;5055335;28;20028;-68
2023/05/05 07:44:32;;;;;;;10.70;6.53;;;30.70;33.50;;;;;;5054054;28;20057;-67
2023/05/05 07:46:58;;;;;;;12.75;6.80;;;30.40;33.60;;;;;;5055025;28;20359;-70
2023/05/05 07:49:24;;;;;;;14.45;6.97;;;30.00;32.90;;;;;;5055330;28;20029;-67
2023/05/05 07:51:50;;;;;;;13.80;7.30;;;29.70;34.60;;;;;;5055247;28;20025;-67
2023/05/05 07:54:16;;;;;;;9.30;6.57;;;30.10;34.30;;;;;;5054842;28;20025;-67
2023/05/05 07:56:42;;;;;;;12.27;6.38;;;30.40;34.10;;;;;;5055275;28;20025;-67
2023/05/05 07:59:08;;;;;;;10.30;6.85;;;30.60;34.60;;;;;;5054858;28;20025;-66
2023/05/05 08:01:34;;;;;;;10.98;6.88;;;30.70;33.60;;;;;;5055247;28;20044;-67
2023/05/05 08:04:00;;;;;;;12.45;6.28;;;30.70;32.70;;;;;;5054770;28;20025;-68
2023/05/05 08:06:26;;;;;;;12.23;6.47;;;30.30;33.60;;;;;;5054724;28;20032;-68
2023/05/05 08:08:52;;;;;;;14.77;7.90;;;30.40;34.60;;;;;;5055193;28;20025;-67
2023/05/05 08:11:19;;;;;;;15.18;8.05;;;30.30;33.20;;;;;;5054597;28;20033;-67
2023/05/05 08:13:45;;;;;;;10.82;6.60;;;29.70;33.80;;;;;;5054948;28;20033;-67
2023/05/05 08:16:12;;;;;;;8.45;6.50;;;29.50;34.10;;;;;;5054147;28;20029;-67
2023/05/05 08:18:37;;;;;;;13.35;7.57;;;29.20;35.70;;;;;;5053703;28;20033;-67
2023/05/05 08:21:04;;;;;;;12.30;7.53;;;29.20;35.00;;;;;;5054877;28;20025;-69
2023/05/05 08:23:30;;;;;;;11.77;7.68;;;28.90;34.90;;;;;;5054990;28;20374;-68
2023/05/05 08:25:55;;;;;;;14.85;8.18;;;28.40;35.50;;;;;;5054501;28;20037;-68
2023/05/05 08:28:21;;;;;;;13.80;7.60;;;28.10;35.50;;;;;;5054429;28;20546;-68
2023/05/05 08:30:48;;;;;;;12.80;7.80;;;28.60;36.40;;;;;;5053231;28;20159;-66
2023/05/05 08:33:14;;;;;;;15.38;8.63;;;28.80;35.90;;;;;;5052969;28;20490;-67
2023/05/05 08:35:41;;;;;;;11.25;8.30;;;28.30;36.00;;;;;;5054820;28;20170;-67
2023/05/05 08:38:06;;;;;;;12.85;8.63;;;28.00;37.10;;;;;;5054000;28;20075;-67
2023/05/05 08:40:33;;;;;;;18.15;10.20;;;27.90;36.80;;;;;;5054769;28;20025;-67
2023/05/05 08:43:00;;;;;;;12.75;8.68;;;27.50;37.00;;;;;;5054677;28;20032;-67
2023/05/05 08:45:27;;;;;;;12.73;8.23;;;27.30;38.20;;;;;;5053856;28;20057;-67
2023/05/05 08:47:56;;;;;;;14.32;8.52;;;27.20;38.10;;;;;;5052933;28;20124;-67
2023/05/05 08:50:24;;;;;;;10.43;7.90;;;26.80;38.70;;;;;;5054159;28;20091;-67
2023/05/05 08:52:56;;;;;;;10.10;7.15;;;26.50;39.80;;;;;;5054204;28;20047;-66
2023/05/05 08:55:25;;;;;;;12.20;7.88;;;26.60;41.30;;;;;;5053984;28;20025;-67
2023/05/05 08:57:54;;;;;;;8.90;7.97;;;26.70;41.00;;;;;;5054200;28;20029;-67
2023/05/05 09:00:20;;;;;;;11.45;9.10;;;26.60;40.70;;;;;;5053682;28;20065;-67
2023/05/05 09:02:47;;;;;;;10.02;8.18;;;26.50;40.60;;;;;;5054180;28;20184;-66
2023/05/05 09:05:12;;;;;;;10.52;8.10;;;26.30;41.30;;;;;;5053827;28;20037;-68
2023/05/05 09:07:40;;;;;;;12.02;8.48;;;26.20;41.30;;;;;;5053849;28;20090;-68
2023/05/05 09:10:07;;;;;;;12.45;8.38;;;26.10;41.60;;;;;;5053350;28;20523;-68
2023/05/05 09:12:34;;;;;;;10.23;8.40;;;26.00;41.40;;;;;;5053565;28;20029;-68
2023/05/05 09:15:02;;;;;;;9.32;8.27;;;25.90;41.70;;;;;;5053946;28;20025;-68
2023/05/05 09:17:28;;;;;;;13.07;9.68;;;25.60;42.00;;;;;;5051230;28;20025;-69
2023/05/05 09:20:06;;;;;;;13.43;8.90;;;25.10;42.80;;;;;;5053884;28;20480;-67
2023/05/05 09:22:45;;;;;;;10.93;9.63;;;24.80;44.00;;;;;;5053659;28;20021;-68
2023/05/05 09:25:15;;;;;;;12.35;8.98;;;24.60;44.70;;;;;;5053282;28;20059;-68
2023/05/05 09:27:46;;;;;;;10.75;9.57;;;24.60;45.50;;;;;;5053986;28;20381;-67
2023/05/05 09:30:16;;;;;;;;;;;24.70;46.30;;;;;;5053574;28;20060;-68
2023/05/05 09:32:53;;;;;;;14.77;10.75;;;24.60;46.30;;;;;;5053255;28;19992;-68
2023/05/05 09:35:20;;;;;;;14.50;10.40;;;24.50;46.30;;;;;;5053107;28;20107;-66
2023/05/05 09:37:46;;;;;;;13.82;9.55;;;24.40;46.10;;;;;;5053435;28;20021;-67
2023/05/05 09:40:14;;;;;;;13.95;10.15;;;24.30;45.90;;;;;;5052534;28;20025;-68
2023/05/05 09:42:40;;;;;;;12.70;10.10;;;24.10;46.30;;;;;;5053293;28;20500;-66
2023/05/05 09:45:18;;;;;;;10.63;9.57;;;24.10;47.10;;;;;;5052936;28;20052;-68
2023/05/05 09:47:47;;;;;;;14.55;10.15;;;24.20;46.40;;;;;;5053231;28;20025;-68
2023/05/05 09:50:17;;;;;;;12.02;9.88;;;23.80;46.90;;;;;;5052876;28;20036;-67
2023/05/05 09:52:56;;;;;;;12.90;10.75;;;24.00;48.30;;;;;;5053227;28;20405;-67
2023/05/05 09:55:23;;;;;;;13.10;10.80;;;24.00;48.00;;;;;;5052223;28;20461;-67
2023/05/05 09:57:48;;;;;;;11.57;9.50;;;23.90;47.70;;;;;;5052811;28;20521;-66
2023/05/05 10:00:14;;;;;;;15.38;10.65;;;23.90;47.90;;;;;;5052276;28;20180;-67
2023/05/05 10:02:40;;;;;;;11.27;9.13;;;23.90;47.70;;;;;;5052687;28;20036;-66
2023/05/05 10:05:11;;;;;;;12.60;8.70;;;24.00;48.10;;;;;;5052751;28;20063;-67
2023/05/05 10:07:38;;;;;;;15.20;10.05;;;24.10;47.90;;;;;;5053004;28;20029;-66
2023/05/05 10:10:06;;;;;;;13.10;8.88;;;24.20;47.60;;;;;;5051406;28;20029;-66
2023/05/05 10:12:35;;;;;;;10.52;9.25;;;24.20;48.20;;;;;;5051996;28;20040;-66
2023/05/05 10:15:03;;;;;;;12.45;9.10;;;24.20;46.90;;;;;;5052630;28;20029;-67
2023/05/05 10:17:34;;;;;;;14.18;9.43;;;24.30;46.40;;;;;;5051915;28;20537;-67
2023/05/05 10:20:02;;;;;;;10.88;8.63;;;24.20;46.30;;;;;;5051289;28;20049;-67
2023/05/05 10:22:32;;;;;;;12.77;8.93;;;24.20;47.20;;;;;;5052057;28;20056;-67
2023/05/05 10:25:08;;;;;;;13.02;7.15;;;24.10;47.30;;;;;;5052085;28;20041;-67
2023/05/05 10:27:42;;;;;;;14.73;8.13;;;24.00;46.10;;;;;;5052138;28;20041;-67
2023/05/05 10:30:30;;;;;;;10.13;7.18;;;23.80;46.50;;;;;;5051975;28;20025;-67
2023/05/05 10:33:05;;;;;;;8.20;6.53;;;23.80;46.90;;;;;;5052362;28;20017;-67
2023/05/05 10:35:34;;;;;;;12.45;7.60;;;23.80;46.70;;;;;;5051954;28;20066;-67
2023/05/05 10:38:01;;;;;;;11.45;7.05;;;23.80;47.00;;;;;;5052211;28;20026;-68
2023/05/05 10:40:27;;;;;;;10.23;6.85;;;23.90;47.20;;;;;;5050839;28;20029;-67
2023/05/05 10:42:53;;;;;;;10.48;7.55;;;23.80;47.10;;;;;;5050905;28;20452;-68
2023/05/05 10:45:19;;;;;;;11.13;7.47;;;23.80;46.50;;;;;;5051519;28;20057;-68
2023/05/05 10:47:45;;;;;;;9.13;7.40;;;23.90;48.20;;;;;;5052196;28;20043;-67
2023/05/05 10:50:28;;;;;;;8.98;6.93;;;24.00;48.60;;;;;;5051679;28;20083;-74
2023/05/05 10:53:13;;;;;;;9.65;6.25;;;24.20;48.60;;;;;;5052313;28;20128;-67
2023/05/05 10:55:59;;;;;;;14.98;8.30;;;24.30;48.50;;;;;;5051835;28;20052;-67
2023/05/05 10:58:36;;;;;;;13.25;7.60;;;24.30;47.10;;;;;;5043881;28;20040;-68
2023/05/05 11:01:02;;;;;;;10.57;7.13;;;23.90;47.40;;;;;;5051820;28;20563;-68
2023/05/05 11:03:28;;;;;;;11.52;5.80;;;24.00;47.90;;;;;;5051538;28;20051;-67
2023/05/05 11:06:03;;;;;;;9.18;6.05;;;23.80;47.60;;;;;;5051758;28;20037;-67
2023/05/05 11:08:30;;;;;;;8.38;6.18;;;23.70;47.60;;;;;;5051478;28;20032;-67
2023/05/05 11:10:56;;;;;;;8.80;5.80;;;23.70;48.50;;;;;;5052049;28;20021;-68
2023/05/05 11:13:21;;;;;;;7.20;6.05;;;23.60;48.70;;;;;;5051695;28;20036;-68
2023/05/05 11:15:51;;;;;;;8.02;5.13;;;23.60;49.30;;;;;;5050797;28;20421;-66
2023/05/05 11:18:34;;;;;;;9.05;5.40;;;23.80;49.40;;;;;;5051641;28;20029;-66
2023/05/05 11:21:00;;;;;;;5.95;4.93;;;23.80;48.00;;;;;;5052075;28;20029;-67
2023/05/05 11:23:26;;;;;;;6.68;5.22;;;23.80;47.00;;;;;;5051216;28;20096;-67
2023/05/05 11:25:52;;;;;;;9.55;4.68;;;23.90;46.50;;;;;;5052004;28;20033;-68
2023/05/05 11:28:23;;;;;;;7.38;4.72;;;23.90;46.60;;;;;;5051552;28;20040;-67
2023/05/05 11:30:57;;;;;;;8.02;4.60;;;23.90;46.60;;;;;;5052128;28;20035;-67
2023/05/05 11:33:36;;;;;;;7.72;4.07;;;24.00;46.70;;;;;;5051358;28;20408;-67
2023/05/05 11:36:10;;;;;;;6.43;4.78;;;24.00;47.60;;;;;;5051770;28;20025;-67
2023/05/05 11:38:57;;;;;;;10.02;4.75;;;24.10;47.20;;;;;;5051522;28;20027;-67
2023/05/05 11:41:31;;;;;;;10.40;4.35;;;24.30;46.20;;;;;;5053785;28;20067;-67
2023/05/05 11:44:10;;;;;;;7.70;3.70;;;24.20;46.90;;;;;;5054855;28;20017;-67
2023/05/05 11:46:38;;;;;;;7.10;4.70;;;24.30;46.80;;;;;;5055010;28;20044;-67
2023/05/05 11:49:03;;;;;;;8.55;4.40;;;24.30;46.50;;;;;;5055443;28;20025;-67
2023/05/05 11:51:30;;;;;;;7.28;4.28;;;24.30;45.90;;;;;;5054881;28;20099;-68
2023/05/05 11:53:56;;;;;;;9.32;3.85;;;24.40;46.50;;;;;;5055305;28;20021;-68
2023/05/05 11:56:22;;;;;;;9.88;4.53;;;24.40;46.70;;;;;;5054764;28;20029;-67
2023/05/05 11:58:48;;;;;;;8.60;4.10;;;24.40;45.30;;;;;;5055212;28;20021;-67
2023/05/05 12:01:14;;;;;;;9.60;4.03;;;24.30;45.90;;;;;;5055240;28;20021;-68
2023/05/05 12:03:40;;;;;;;6.95;3.95;;;24.30;47.10;;;;;;5054540;28;20029;-69
2023/05/05 12:06:07;;;;;;;5.45;3.55;;;24.20;45.50;;;;;;5054777;28;20481;-67
2023/05/05 12:08:40;;;;;;;6.30;3.30;;;24.10;45.00;;;;;;5054436;28;20416;-67
2023/05/05 12:11:07;;;;;;;5.25;3.30;;;24.10;44.40;;;;;;5055311;28;20025;-67
2023/05/05 12:13:33;;;;;;;6.10;3.65;;;23.90;44.70;;;;;;5052843;28;20029;-69
2023/05/05 12:16:09;;;;;;;5.38;3.95;;;23.80;44.90;;;;;;5054428;28;20388;-66
2023/05/05 12:18:35;;;;;;;5.95;3.42;;;23.70;45.60;;;;;;5054447;28;20492;-67
2023/05/05 12:21:01;;;;;;;3.83;3.13;;;23.60;45.30;;;;;;5054576;28;20029;-66
2023/05/05 12:23:28;;;;;;;4.30;3.40;;;23.50;45.90;;;;;;5054216;28;20087;-67
2023/05/05 12:25:55;;;;;;;6.38;3.20;;;23.50;46.50;;;;;;5053282;28;20040;-67
2023/05/05 12:28:20;;;;;;;7.55;3.55;;;23.40;45.30;;;;;;5054318;28;20100;-67
2023/05/05 12:30:58;;;;;;;5.30;2.97;;;23.40;45.00;;;;;;5053736;28;20470;-67
2023/05/05 12:33:25;;;;;;;5.20;3.20;;;23.30;44.80;;;;;;5054245;28;20031;-67
2023/05/05 12:35:51;;;;;;;6.97;2.97;;;23.20;45.20;;;;;;5054384;28;20036;-67
2023/05/05 12:38:16;;;;;;;5.45;2.80;;;23.20;46.90;;;;;;5054608;28;20373;-67
2023/05/05 12:40:46;;;;;;;5.80;2.92;;;23.20;46.10;;;;;;5052788;28;20051;-67
2023/05/05 12:43:28;;;;;;;6.10;2.60;;;23.10;44.80;;;;;;5055338;28;20055;-67
2023/05/05 12:46:01;;;;;;;6.38;2.95;;;23.10;46.00;;;;;;5056526;28;20114;-67